sensor_id;sensor_type;location;lat;lon;timestamp;pressure;altitude;pressure_sealevel;temperature
66403;BMP180;53212;52.112;5.144;2022-12-16T00:01:13;100923.80;;;-0.60
66403;BMP180;53212;52.112;5.144;2022-12-16T00:03:40;100919.80;;;-0.58
66403;BMP180;53212;52.112;5.144;2022-12-16T00:06:07;100925.40;;;-0.50
66403;BMP180;53212;52.112;5.144;2022-12-16T00:08:36;100919.00;;;-0.60
66403;BMP180;53212;52.112;5.144;2022-12-16T00:11:02;100927.20;;;-0.70
66403;BMP180;53212;52.112;5.144;2022-12-16T00:13:29;100928.60;;;-0.70
66403;BMP180;53212;52.112;5.144;2022-12-16T00:15:55;100935.20;;;-0.70
66403;BMP180;53212;52.112;5.144;2022-12-16T00:18:21;100941.00;;;-0.80
66403;BMP180;53212;52.112;5.144;2022-12-16T00:20:50;100934.00;;;-0.80
66403;BMP180;53212;52.112;5.144;2022-12-16T00:23:16;100929.80;;;-0.90
66403;BMP180;53212;52.112;5.144;2022-12-16T00:25:43;100929.80;;;-1.00
66403;BMP180;53212;52.112;5.144;2022-12-16T00:28:11;100929.80;;;-0.90
66403;BMP180;53212;52.112;5.144;2022-12-16T00:30:37;100933.40;;;-0.90
66403;BMP180;53212;52.112;5.144;2022-12-16T00:33:04;100933.00;;;-0.80
66403;BMP180;53212;52.112;5.144;2022-12-16T00:35:29;100934.20;;;-0.80
66403;BMP180;53212;52.112;5.144;2022-12-16T00:37:55;100938.60;;;-0.70
66403;BMP180;53212;52.112;5.144;2022-12-16T00:40:21;100937.00;;;-0.70
66403;BMP180;53212;52.112;5.144;2022-12-16T00:42:47;100940.00;;;-0.70
66403;BMP180;53212;52.112;5.144;2022-12-16T00:45:12;100936.80;;;-0.70
66403;BMP180;53212;52.112;5.144;2022-12-16T00:47:38;100938.80;;;-0.60
66403;BMP180;53212;52.112;5.144;2022-12-16T00:50:04;100944.40;;;-0.60
66403;BMP180;53212;52.112;5.144;2022-12-16T00:52:30;100947.60;;;-0.52
66403;BMP180;53212;52.112;5.144;2022-12-16T00:54:55;100950.40;;;-0.50
66403;BMP180;53212;52.112;5.144;2022-12-16T00:57:21;100954.00;;;-0.40
66403;BMP180;53212;52.112;5.144;2022-12-16T00:59:47;100959.40;;;-0.40
66403;BMP180;53212;52.112;5.144;2022-12-16T01:02:12;100958.00;;;-0.40
66403;BMP180;53212;52.112;5.144;2022-12-16T01:04:38;100957.80;;;-0.40
66403;BMP180;53212;52.112;5.144;2022-12-16T01:07:03;100960.40;;;-0.38
66403;BMP180;53212;52.112;5.144;2022-12-16T01:09:29;100965.20;;;-0.32
66403;BMP180;53212;52.112;5.144;2022-12-16T01:11:54;100974.00;;;-0.30
66403;BMP180;53212;52.112;5.144;2022-12-16T01:14:19;100974.00;;;-0.32
66403;BMP180;53212;52.112;5.144;2022-12-16T01:16:45;100977.60;;;-0.36
66403;BMP180;53212;52.112;5.144;2022-12-16T01:19:10;100977.60;;;-0.40
66403;BMP180;53212;52.112;5.144;2022-12-16T01:21:37;100982.00;;;-0.40
66403;BMP180;53212;52.112;5.144;2022-12-16T01:24:02;100978.80;;;-0.40
66403;BMP180;53212;52.112;5.144;2022-12-16T01:26:28;100984.80;;;-0.40
66403;BMP180;53212;52.112;5.144;2022-12-16T01:28:53;100987.60;;;-0.40
66403;BMP180;53212;52.112;5.144;2022-12-16T01:31:20;100990.80;;;-0.30
66403;BMP180;53212;52.112;5.144;2022-12-16T01:33:46;101000.60;;;-0.30
66403;BMP180;53212;52.112;5.144;2022-12-16T01:36:12;100997.80;;;-0.22
66403;BMP180;53212;52.112;5.144;2022-12-16T01:38:37;101001.40;;;-0.20
66403;BMP180;53212;52.112;5.144;2022-12-16T01:41:05;101003.20;;;-0.20
66403;BMP180;53212;52.112;5.144;2022-12-16T01:43:34;101013.20;;;-0.10
66403;BMP180;53212;52.112;5.144;2022-12-16T01:48:57;101018.80;;;-0.10
66403;BMP180;53212;52.112;5.144;2022-12-16T01:51:48;101016.20;;;0.00
66403;BMP180;53212;52.112;5.144;2022-12-16T01:54:22;101019.60;;;0.00
66403;BMP180;53212;52.112;5.144;2022-12-16T01:56:57;101021.80;;;0.00
66403;BMP180;53212;52.112;5.144;2022-12-16T01:59:26;101020.00;;;0.00
66403;BMP180;53212;52.112;5.144;2022-12-16T02:01:52;101021.20;;;0.10
66403;BMP180;53212;52.112;5.144;2022-12-16T02:04:18;101025.20;;;0.10
66403;BMP180;53212;52.112;5.144;2022-12-16T02:06:43;101025.00;;;0.10
66403;BMP180;53212;52.112;5.144;2022-12-16T02:09:11;101031.20;;;0.10
66403;BMP180;53212;52.112;5.144;2022-12-16T02:15:13;101026.60;;;0.18
66403;BMP180;53212;52.112;5.144;2022-12-16T02:26:18;101032.80;;;0.20
66403;BMP180;53212;52.112;5.144;2022-12-16T02:38:23;101044.40;;;0.10
66403;BMP180;53212;52.112;5.144;2022-12-16T02:40:58;101044.60;;;0.10
66403;BMP180;53212;52.112;5.144;2022-12-16T02:46:09;101041.40;;;0.10
66403;BMP180;53212;52.112;5.144;2022-12-16T02:48:35;101047.40;;;0.14
66403;BMP180;53212;52.112;5.144;2022-12-16T02:51:01;101054.00;;;0.20
66403;BMP180;53212;52.112;5.144;2022-12-16T02:53:27;101048.80;;;0.20
66403;BMP180;53212;52.112;5.144;2022-12-16T02:59:23;101044.00;;;0.30
66403;BMP180;53212;52.112;5.144;2022-12-16T03:02:09;101057.40;;;0.30
66403;BMP180;53212;52.112;5.144;2022-12-16T03:07:19;101066.60;;;0.30
66403;BMP180;53212;52.112;5.144;2022-12-16T03:09:46;101072.20;;;0.30
66403;BMP180;53212;52.112;5.144;2022-12-16T03:12:16;101077.80;;;0.30
66403;BMP180;53212;52.112;5.144;2022-12-16T03:14:47;101083.60;;;0.30
66403;BMP180;53212;52.112;5.144;2022-12-16T03:17:15;101090.20;;;0.40
66403;BMP180;53212;52.112;5.144;2022-12-16T03:19:48;101092.60;;;0.40
66403;BMP180;53212;52.112;5.144;2022-12-16T03:22:17;101101.60;;;0.40
66403;BMP180;53212;52.112;5.144;2022-12-16T03:24:44;101105.80;;;0.40
66403;BMP180;53212;52.112;5.144;2022-12-16T03:27:30;101102.80;;;0.40
66403;BMP180;53212;52.112;5.144;2022-12-16T03:30:15;101100.20;;;0.40
66403;BMP180;53212;52.112;5.144;2022-12-16T03:33:07;101100.80;;;0.40
66403;BMP180;53212;52.112;5.144;2022-12-16T03:35:36;101101.40;;;0.40
66403;BMP180;53212;52.112;5.144;2022-12-16T03:38:07;101112.80;;;0.40
66403;BMP180;53212;52.112;5.144;2022-12-16T03:40:35;101124.80;;;0.40
66403;BMP180;53212;52.112;5.144;2022-12-16T03:43:02;101128.40;;;0.40
66403;BMP180;53212;52.112;5.144;2022-12-16T03:45:36;101129.00;;;0.40
66403;BMP180;53212;52.112;5.144;2022-12-16T03:48:06;101134.00;;;0.40
66403;BMP180;53212;52.112;5.144;2022-12-16T03:50:34;101138.00;;;0.40
66403;BMP180;53212;52.112;5.144;2022-12-16T03:53:00;101140.60;;;0.40
66403;BMP180;53212;52.112;5.144;2022-12-16T03:55:26;101145.80;;;0.40
66403;BMP180;53212;52.112;5.144;2022-12-16T03:57:52;101144.00;;;0.40
66403;BMP180;53212;52.112;5.144;2022-12-16T04:00:19;101142.40;;;0.40
66403;BMP180;53212;52.112;5.144;2022-12-16T04:02:44;101143.00;;;0.44
66403;BMP180;53212;52.112;5.144;2022-12-16T04:05:10;101145.40;;;0.48
66403;BMP180;53212;52.112;5.144;2022-12-16T04:07:35;101152.20;;;0.44
66403;BMP180;53212;52.112;5.144;2022-12-16T04:10:01;101147.40;;;0.48
66403;BMP180;53212;52.112;5.144;2022-12-16T04:12:26;101155.00;;;0.44
66403;BMP180;53212;52.112;5.144;2022-12-16T04:15:11;101155.80;;;0.40
66403;BMP180;53212;52.112;5.144;2022-12-16T04:17:55;101155.00;;;0.40
66403;BMP180;53212;52.112;5.144;2022-12-16T04:20:44;101161.60;;;0.40
66403;BMP180;53212;52.112;5.144;2022-12-16T04:23:30;101160.60;;;0.30
66403;BMP180;53212;52.112;5.144;2022-12-16T04:26:14;101166.20;;;0.30
66403;BMP180;53212;52.112;5.144;2022-12-16T04:28:40;101164.40;;;0.20
66403;BMP180;53212;52.112;5.144;2022-12-16T04:31:05;101165.00;;;0.20
66403;BMP180;53212;52.112;5.144;2022-12-16T04:33:31;101171.40;;;0.20
66403;BMP180;53212;52.112;5.144;2022-12-16T04:36:16;101176.20;;;0.10
66403;BMP180;53212;52.112;5.144;2022-12-16T04:39:00;101181.00;;;0.00
66403;BMP180;53212;52.112;5.144;2022-12-16T04:41:44;101182.00;;;-0.02
66403;BMP180;53212;52.112;5.144;2022-12-16T04:44:28;101188.20;;;-0.20
66403;BMP180;53212;52.112;5.144;2022-12-16T04:47:12;101198.00;;;-0.32
66403;BMP180;53212;52.112;5.144;2022-12-16T04:49:56;101196.80;;;-0.40
66403;BMP180;53212;52.112;5.144;2022-12-16T04:52:40;101194.00;;;-0.50
66403;BMP180;53212;52.112;5.144;2022-12-16T04:55:24;101193.00;;;-0.58
66403;BMP180;53212;52.112;5.144;2022-12-16T04:58:08;101184.40;;;-0.70
66403;BMP180;53212;52.112;5.144;2022-12-16T05:00:53;101186.60;;;-0.70
66403;BMP180;53212;52.112;5.144;2022-12-16T05:03:37;101184.00;;;-0.80
66403;BMP180;53212;52.112;5.144;2022-12-16T05:06:28;101180.20;;;-0.80
66403;BMP180;53212;52.112;5.144;2022-12-16T05:09:12;101183.00;;;-0.80
66403;BMP180;53212;52.112;5.144;2022-12-16T05:11:56;101186.80;;;-0.90
66403;BMP180;53212;52.112;5.144;2022-12-16T05:14:40;101193.20;;;-1.00
66403;BMP180;53212;52.112;5.144;2022-12-16T05:17:24;101188.60;;;-1.20
66403;BMP180;53212;52.112;5.144;2022-12-16T05:20:09;101192.80;;;-1.40
66403;BMP180;53212;52.112;5.144;2022-12-16T05:22:57;101198.60;;;-1.40
66403;BMP180;53212;52.112;5.144;2022-12-16T05:25:41;101199.60;;;-1.50
66403;BMP180;53212;52.112;5.144;2022-12-16T05:28:26;101205.20;;;-1.50
66403;BMP180;53212;52.112;5.144;2022-12-16T05:31:10;101208.40;;;-1.40
66403;BMP180;53212;52.112;5.144;2022-12-16T05:33:54;101213.00;;;-1.40
66403;BMP180;53212;52.112;5.144;2022-12-16T05:36:38;101210.60;;;-1.40
66403;BMP180;53212;52.112;5.144;2022-12-16T05:39:22;101209.40;;;-1.50
66403;BMP180;53212;52.112;5.144;2022-12-16T05:42:06;101216.20;;;-1.60
66403;BMP180;53212;52.112;5.144;2022-12-16T05:44:50;101215.80;;;-1.60
66403;BMP180;53212;52.112;5.144;2022-12-16T05:47:35;101220.60;;;-1.70
66403;BMP180;53212;52.112;5.144;2022-12-16T05:50:19;101230.40;;;-1.78
66403;BMP180;53212;52.112;5.144;2022-12-16T05:53:03;101226.60;;;-1.80
66403;BMP180;53212;52.112;5.144;2022-12-16T05:55:47;101227.60;;;-1.82
66403;BMP180;53212;52.112;5.144;2022-12-16T05:58:31;101231.00;;;-1.80
66403;BMP180;53212;52.112;5.144;2022-12-16T06:01:15;101230.60;;;-1.80
66403;BMP180;53212;52.112;5.144;2022-12-16T06:03:59;101234.00;;;-1.88
66403;BMP180;53212;52.112;5.144;2022-12-16T06:06:44;101242.20;;;-1.90
66403;BMP180;53212;52.112;5.144;2022-12-16T06:09:28;101238.20;;;-2.00
66403;BMP180;53212;52.112;5.144;2022-12-16T06:12:12;101243.00;;;-2.10
66403;BMP180;53212;52.112;5.144;2022-12-16T06:14:56;101250.40;;;-2.12
66403;BMP180;53212;52.112;5.144;2022-12-16T06:17:51;101253.80;;;-2.20
66403;BMP180;53212;52.112;5.144;2022-12-16T06:20:35;101246.20;;;-2.20
66403;BMP180;53212;52.112;5.144;2022-12-16T06:23:19;101250.40;;;-2.20
66403;BMP180;53212;52.112;5.144;2022-12-16T06:26:04;101253.60;;;-2.20
66403;BMP180;53212;52.112;5.144;2022-12-16T06:28:49;101252.40;;;-2.20
66403;BMP180;53212;52.112;5.144;2022-12-16T06:31:33;101255.80;;;-2.20
66403;BMP180;53212;52.112;5.144;2022-12-16T06:34:17;101260.80;;;-2.28
66403;BMP180;53212;52.112;5.144;2022-12-16T06:37:02;101264.40;;;-2.30
66403;BMP180;53212;52.112;5.144;2022-12-16T06:39:46;101271.20;;;-2.30
66403;BMP180;53212;52.112;5.144;2022-12-16T06:42:30;101273.00;;;-2.30
66403;BMP180;53212;52.112;5.144;2022-12-16T06:45:14;101277.80;;;-2.30
66403;BMP180;53212;52.112;5.144;2022-12-16T06:47:58;101285.20;;;-2.30
66403;BMP180;53212;52.112;5.144;2022-12-16T06:50:43;101289.40;;;-2.30
66403;BMP180;53212;52.112;5.144;2022-12-16T06:53:27;101293.00;;;-2.20
66403;BMP180;53212;52.112;5.144;2022-12-16T06:56:12;101298.20;;;-2.20
66403;BMP180;53212;52.112;5.144;2022-12-16T06:58:56;101302.40;;;-2.10
66403;BMP180;53212;52.112;5.144;2022-12-16T07:01:40;101301.60;;;-2.10
66403;BMP180;53212;52.112;5.144;2022-12-16T07:04:24;101304.40;;;-2.00
66403;BMP180;53212;52.112;5.144;2022-12-16T07:07:08;101307.40;;;-2.00
66403;BMP180;53212;52.112;5.144;2022-12-16T07:09:52;101307.60;;;-2.00
66403;BMP180;53212;52.112;5.144;2022-12-16T07:12:36;101312.00;;;-2.00
66403;BMP180;53212;52.112;5.144;2022-12-16T07:15:20;101316.20;;;-2.00
66403;BMP180;53212;52.112;5.144;2022-12-16T07:18:04;101315.80;;;-2.00
66403;BMP180;53212;52.112;5.144;2022-12-16T07:20:48;101320.20;;;-2.00
66403;BMP180;53212;52.112;5.144;2022-12-16T07:23:32;101320.20;;;-1.92
66403;BMP180;53212;52.112;5.144;2022-12-16T07:26:16;101326.40;;;-1.96
66403;BMP180;53212;52.112;5.144;2022-12-16T07:29:00;101333.20;;;-1.98
66403;BMP180;53212;52.112;5.144;2022-12-16T07:31:44;101334.60;;;-1.92
66403;BMP180;53212;52.112;5.144;2022-12-16T07:34:28;101334.80;;;-1.96
66403;BMP180;53212;52.112;5.144;2022-12-16T07:37:13;101340.20;;;-2.00
66403;BMP180;53212;52.112;5.144;2022-12-16T07:39:57;101340.00;;;-2.00
66403;BMP180;53212;52.112;5.144;2022-12-16T07:42:41;101344.00;;;-2.10
66403;BMP180;53212;52.112;5.144;2022-12-16T07:45:26;101344.20;;;-2.00
66403;BMP180;53212;52.112;5.144;2022-12-16T07:48:10;101354.00;;;-2.00
66403;BMP180;53212;52.112;5.144;2022-12-16T07:50:54;101351.80;;;-2.00
66403;BMP180;53212;52.112;5.144;2022-12-16T07:53:38;101361.60;;;-2.00
66403;BMP180;53212;52.112;5.144;2022-12-16T07:56:22;101362.60;;;-2.00
66403;BMP180;53212;52.112;5.144;2022-12-16T07:59:06;101372.80;;;-2.10
66403;BMP180;53212;52.112;5.144;2022-12-16T08:01:51;101385.20;;;-2.20
66403;BMP180;53212;52.112;5.144;2022-12-16T08:04:35;101386.40;;;-2.20
66403;BMP180;53212;52.112;5.144;2022-12-16T08:07:19;101391.00;;;-2.20
66403;BMP180;53212;52.112;5.144;2022-12-16T08:10:03;101398.00;;;-2.20
66403;BMP180;53212;52.112;5.144;2022-12-16T08:12:48;101398.80;;;-2.14
66403;BMP180;53212;52.112;5.144;2022-12-16T08:15:32;101398.40;;;-2.10
66403;BMP180;53212;52.112;5.144;2022-12-16T08:18:16;101403.00;;;-2.00
66403;BMP180;53212;52.112;5.144;2022-12-16T08:21:00;101405.20;;;-1.90
66403;BMP180;53212;52.112;5.144;2022-12-16T08:23:44;101410.80;;;-1.78
66403;BMP180;53212;52.112;5.144;2022-12-16T08:26:28;101416.80;;;-1.70
66403;BMP180;53212;52.112;5.144;2022-12-16T08:29:12;101425.20;;;-1.60
66403;BMP180;53212;52.112;5.144;2022-12-16T08:31:56;101424.60;;;-1.58
66403;BMP180;53212;52.112;5.144;2022-12-16T08:34:40;101422.20;;;-1.50
66403;BMP180;53212;52.112;5.144;2022-12-16T08:37:24;101424.80;;;-1.40
66403;BMP180;53212;52.112;5.144;2022-12-16T08:40:08;101421.80;;;-1.40
66403;BMP180;53212;52.112;5.144;2022-12-16T08:42:56;101421.60;;;-1.30
66403;BMP180;53212;52.112;5.144;2022-12-16T08:45:42;101424.00;;;-1.30
66403;BMP180;53212;52.112;5.144;2022-12-16T08:48:26;101433.80;;;-1.28
66403;BMP180;53212;52.112;5.144;2022-12-16T08:51:11;101438.00;;;-1.20
66403;BMP180;53212;52.112;5.144;2022-12-16T08:53:54;101433.20;;;-1.18
66403;BMP180;53212;52.112;5.144;2022-12-16T08:56:38;101430.00;;;-1.10
66403;BMP180;53212;52.112;5.144;2022-12-16T08:59:22;101447.40;;;-1.08
66403;BMP180;53212;52.112;5.144;2022-12-16T09:02:09;101446.60;;;-1.00
66403;BMP180;53212;52.112;5.144;2022-12-16T09:04:53;101450.40;;;-0.90
66403;BMP180;53212;52.112;5.144;2022-12-16T09:07:37;101455.40;;;-0.90
66403;BMP180;53212;52.112;5.144;2022-12-16T09:10:21;101454.20;;;-0.90
66403;BMP180;53212;52.112;5.144;2022-12-16T09:13:25;101452.00;;;-0.90
66403;BMP180;53212;52.112;5.144;2022-12-16T09:16:09;101457.80;;;-0.80
66403;BMP180;53212;52.112;5.144;2022-12-16T09:18:53;101460.40;;;-0.80
66403;BMP180;53212;52.112;5.144;2022-12-16T09:21:36;101466.20;;;-0.70
66403;BMP180;53212;52.112;5.144;2022-12-16T09:24:20;101462.20;;;-0.60
66403;BMP180;53212;52.112;5.144;2022-12-16T09:27:04;101464.60;;;-0.60
66403;BMP180;53212;52.112;5.144;2022-12-16T09:29:48;101470.60;;;-0.50
66403;BMP180;53212;52.112;5.144;2022-12-16T09:32:33;101474.20;;;-0.40
66403;BMP180;53212;52.112;5.144;2022-12-16T09:35:17;101477.80;;;-0.40
66403;BMP180;53212;52.112;5.144;2022-12-16T09:38:01;101477.20;;;-0.30
66403;BMP180;53212;52.112;5.144;2022-12-16T09:40:45;101479.00;;;-0.20
66403;BMP180;53212;52.112;5.144;2022-12-16T09:43:50;101482.20;;;-0.10
66403;BMP180;53212;52.112;5.144;2022-12-16T09:47:15;101485.80;;;-0.02
66403;BMP180;53212;52.112;5.144;2022-12-16T09:50:02;101493.00;;;0.00
66403;BMP180;53212;52.112;5.144;2022-12-16T09:52:56;101493.40;;;-0.02
66403;BMP180;53212;52.112;5.144;2022-12-16T09:55:44;101503.40;;;0.00
66403;BMP180;53212;52.112;5.144;2022-12-16T09:59:00;101507.00;;;0.00
66403;BMP180;53212;52.112;5.144;2022-12-16T10:01:45;101511.20;;;0.00
66403;BMP180;53212;52.112;5.144;2022-12-16T10:04:30;101519.40;;;0.10
66403;BMP180;53212;52.112;5.144;2022-12-16T10:07:18;101522.00;;;0.10
66403;BMP180;53212;52.112;5.144;2022-12-16T10:10:31;101524.40;;;0.18
66403;BMP180;53212;52.112;5.144;2022-12-16T10:13:36;101518.40;;;0.20
66403;BMP180;53212;52.112;5.144;2022-12-16T10:16:51;101520.80;;;0.20
66403;BMP180;53212;52.112;5.144;2022-12-16T10:20:12;101521.40;;;0.26
66403;BMP180;53212;52.112;5.144;2022-12-16T10:29:40;101535.20;;;0.30
66403;BMP180;53212;52.112;5.144;2022-12-16T10:32:49;101537.00;;;0.40
66403;BMP180;53212;52.112;5.144;2022-12-16T10:35:52;101533.00;;;0.40
66403;BMP180;53212;52.112;5.144;2022-12-16T10:38:50;101533.60;;;0.50
66403;BMP180;53212;52.112;5.144;2022-12-16T10:41:39;101539.60;;;0.50
66403;BMP180;53212;52.112;5.144;2022-12-16T10:47:29;101537.60;;;0.60
66403;BMP180;53212;52.112;5.144;2022-12-16T10:50:14;101545.40;;;0.68
66403;BMP180;53212;52.112;5.144;2022-12-16T10:53:24;101544.20;;;0.70
66403;BMP180;53212;52.112;5.144;2022-12-16T10:59:46;101534.00;;;0.90
66403;BMP180;53212;52.112;5.144;2022-12-16T11:02:30;101537.40;;;0.92
66403;BMP180;53212;52.112;5.144;2022-12-16T11:08:28;101538.00;;;1.00
66403;BMP180;53212;52.112;5.144;2022-12-16T11:11:21;101538.00;;;1.10
66403;BMP180;53212;52.112;5.144;2022-12-16T11:14:26;101542.60;;;1.10
66403;BMP180;53212;52.112;5.144;2022-12-16T11:17:18;101540.00;;;1.22
66403;BMP180;53212;52.112;5.144;2022-12-16T11:20:25;101538.00;;;1.30
66403;BMP180;53212;52.112;5.144;2022-12-16T11:23:25;101538.40;;;1.30
66403;BMP180;53212;52.112;5.144;2022-12-16T11:26:15;101545.40;;;1.40
66403;BMP180;53212;52.112;5.144;2022-12-16T11:29:16;101559.00;;;1.40
66403;BMP180;53212;52.112;5.144;2022-12-16T11:32:18;101562.80;;;1.50
66403;BMP180;53212;52.112;5.144;2022-12-16T11:35:10;101561.60;;;1.50
66403;BMP180;53212;52.112;5.144;2022-12-16T11:37:56;101560.20;;;1.60
66403;BMP180;53212;52.112;5.144;2022-12-16T11:40:42;101561.00;;;1.70
66403;BMP180;53212;52.112;5.144;2022-12-16T11:43:26;101565.60;;;1.70
66403;BMP180;53212;52.112;5.144;2022-12-16T11:46:25;101565.20;;;1.80
66403;BMP180;53212;52.112;5.144;2022-12-16T11:49:27;101570.80;;;1.80
66403;BMP180;53212;52.112;5.144;2022-12-16T11:52:20;101565.20;;;1.90
66403;BMP180;53212;52.112;5.144;2022-12-16T11:55:24;101567.80;;;2.00
66403;BMP180;53212;52.112;5.144;2022-12-16T11:58:30;101571.80;;;2.00
66403;BMP180;53212;52.112;5.144;2022-12-16T12:01:27;101568.00;;;2.00
66403;BMP180;53212;52.112;5.144;2022-12-16T12:04:13;101566.80;;;2.08
66403;BMP180;53212;52.112;5.144;2022-12-16T12:10:49;101572.00;;;2.12
66403;BMP180;53212;52.112;5.144;2022-12-16T12:13:45;101574.20;;;2.20
66403;BMP180;53212;52.112;5.144;2022-12-16T12:20:46;101574.80;;;2.30
66403;BMP180;53212;52.112;5.144;2022-12-16T12:23:06;101577.80;;;2.40
66403;BMP180;53212;52.112;5.144;2022-12-16T12:26:05;101575.80;;;2.40
66403;BMP180;53212;52.112;5.144;2022-12-16T12:29:19;101575.20;;;2.50
66403;BMP180;53212;52.112;5.144;2022-12-16T12:32:25;101575.00;;;2.50
66403;BMP180;53212;52.112;5.144;2022-12-16T12:42:30;101583.60;;;2.50
66403;BMP180;53212;52.112;5.144;2022-12-16T12:46:06;101586.80;;;2.60
66403;BMP180;53212;52.112;5.144;2022-12-16T12:52:27;101583.80;;;2.80
66403;BMP180;53212;52.112;5.144;2022-12-16T12:55:33;101590.60;;;2.90
66403;BMP180;53212;52.112;5.144;2022-12-16T12:58:22;101592.60;;;3.00
66403;BMP180;53212;52.112;5.144;2022-12-16T13:01:07;101592.80;;;3.02
66403;BMP180;53212;52.112;5.144;2022-12-16T13:04:01;101595.20;;;3.10
66403;BMP180;53212;52.112;5.144;2022-12-16T13:06:49;101594.80;;;3.20
66403;BMP180;53212;52.112;5.144;2022-12-16T13:09:37;101599.40;;;3.30
66403;BMP180;53212;52.112;5.144;2022-12-16T13:12:33;101600.20;;;3.40
66403;BMP180;53212;52.112;5.144;2022-12-16T13:15:35;101598.60;;;3.40
66403;BMP180;53212;52.112;5.144;2022-12-16T13:18:30;101601.00;;;3.40
66403;BMP180;53212;52.112;5.144;2022-12-16T13:21:45;101604.40;;;3.40
66403;BMP180;53212;52.112;5.144;2022-12-16T13:24:48;101608.60;;;3.50
66403;BMP180;53212;52.112;5.144;2022-12-16T13:27:52;101599.80;;;3.50
66403;BMP180;53212;52.112;5.144;2022-12-16T13:30:38;101606.60;;;3.40
66403;BMP180;53212;52.112;5.144;2022-12-16T13:33:29;101610.40;;;3.40
66403;BMP180;53212;52.112;5.144;2022-12-16T13:36:33;101608.00;;;3.40
66403;BMP180;53212;52.112;5.144;2022-12-16T13:39:28;101611.20;;;3.40
66403;BMP180;53212;52.112;5.144;2022-12-16T13:42:48;101612.40;;;3.30
66403;BMP180;53212;52.112;5.144;2022-12-16T13:45:38;101611.20;;;3.20
66403;BMP180;53212;52.112;5.144;2022-12-16T13:48:29;101619.60;;;3.20
66403;BMP180;53212;52.112;5.144;2022-12-16T13:54:32;101627.80;;;3.10
66403;BMP180;53212;52.112;5.144;2022-12-16T13:57:20;101623.80;;;2.94
66403;BMP180;53212;52.112;5.144;2022-12-16T14:00:18;101631.60;;;2.90
66403;BMP180;53212;52.112;5.144;2022-12-16T14:03:10;101630.80;;;2.84
66403;BMP180;53212;52.112;5.144;2022-12-16T14:05:54;101633.60;;;2.80
66403;BMP180;53212;52.112;5.144;2022-12-16T14:08:38;101638.00;;;2.80
66403;BMP180;53212;52.112;5.144;2022-12-16T14:11:50;101638.40;;;2.80
66403;BMP180;53212;52.112;5.144;2022-12-16T14:14:42;101649.80;;;2.74
66403;BMP180;53212;52.112;5.144;2022-12-16T14:17:37;101654.60;;;2.70
66403;BMP180;53212;52.112;5.144;2022-12-16T14:20:47;101658.40;;;2.70
66403;BMP180;53212;52.112;5.144;2022-12-16T14:23:52;101665.20;;;2.70
66403;BMP180;53212;52.112;5.144;2022-12-16T14:26:41;101671.20;;;2.70
66403;BMP180;53212;52.112;5.144;2022-12-16T14:29:27;101673.60;;;2.60
66403;BMP180;53212;52.112;5.144;2022-12-16T14:35:20;101686.20;;;2.60
66403;BMP180;53212;52.112;5.144;2022-12-16T14:38:21;101682.80;;;2.52
66403;BMP180;53212;52.112;5.144;2022-12-16T14:41:23;101683.20;;;2.52
66403;BMP180;53212;52.112;5.144;2022-12-16T14:44:24;101690.60;;;2.60
66403;BMP180;53212;52.112;5.144;2022-12-16T14:47:15;101696.20;;;2.54
66403;BMP180;53212;52.112;5.144;2022-12-16T14:49:59;101698.00;;;2.50
66403;BMP180;53212;52.112;5.144;2022-12-16T14:52:43;101698.80;;;2.40
66403;BMP180;53212;52.112;5.144;2022-12-16T14:55:32;101700.20;;;2.30
66403;BMP180;53212;52.112;5.144;2022-12-16T14:58:19;101705.80;;;2.20
66403;BMP180;53212;52.112;5.144;2022-12-16T15:03:55;101715.20;;;2.00
66403;BMP180;53212;52.112;5.144;2022-12-16T15:06:42;101717.80;;;1.90
66403;BMP180;53212;52.112;5.144;2022-12-16T15:09:37;101722.60;;;1.80
66403;BMP180;53212;52.112;5.144;2022-12-16T15:12:26;101726.00;;;1.80
66403;BMP180;53212;52.112;5.144;2022-12-16T15:15:30;101729.80;;;1.70
66403;BMP180;53212;52.112;5.144;2022-12-16T15:18:25;101736.60;;;1.60
66403;BMP180;53212;52.112;5.144;2022-12-16T15:21:11;101742.40;;;1.60
66403;BMP180;53212;52.112;5.144;2022-12-16T15:23:55;101744.40;;;1.50
66403;BMP180;53212;52.112;5.144;2022-12-16T15:26:39;101747.40;;;1.40
66403;BMP180;53212;52.112;5.144;2022-12-16T15:29:37;101757.60;;;1.30
66403;BMP180;53212;52.112;5.144;2022-12-16T15:32:31;101759.60;;;1.20
66403;BMP180;53212;52.112;5.144;2022-12-16T15:35:29;101767.00;;;1.10
66403;BMP180;53212;52.112;5.144;2022-12-16T15:41:36;101763.40;;;0.90
66403;BMP180;53212;52.112;5.144;2022-12-16T15:44:25;101768.40;;;0.90
66403;BMP180;53212;52.112;5.144;2022-12-16T15:47:36;101767.80;;;0.88
66403;BMP180;53212;52.112;5.144;2022-12-16T15:50:27;101768.40;;;0.80
66403;BMP180;53212;52.112;5.144;2022-12-16T15:53:37;101769.60;;;0.80
66403;BMP180;53212;52.112;5.144;2022-12-16T15:56:43;101781.20;;;0.70
66403;BMP180;53212;52.112;5.144;2022-12-16T15:59:33;101787.40;;;0.70
66403;BMP180;53212;52.112;5.144;2022-12-16T16:02:29;101788.00;;;0.66
66403;BMP180;53212;52.112;5.144;2022-12-16T16:05:19;101788.20;;;0.60
66403;BMP180;53212;52.112;5.144;2022-12-16T16:08:04;101790.20;;;0.60
66403;BMP180;53212;52.112;5.144;2022-12-16T16:10:48;101793.20;;;0.60
66403;BMP180;53212;52.112;5.144;2022-12-16T16:13:32;101796.20;;;0.58
66403;BMP180;53212;52.112;5.144;2022-12-16T16:16:17;101797.00;;;0.50
66403;BMP180;53212;52.112;5.144;2022-12-16T16:19:01;101800.20;;;0.40
66403;BMP180;53212;52.112;5.144;2022-12-16T16:21:45;101802.80;;;0.30
66403;BMP180;53212;52.112;5.144;2022-12-16T16:24:29;101807.80;;;0.28
66403;BMP180;53212;52.112;5.144;2022-12-16T16:27:14;101807.60;;;0.22
66403;BMP180;53212;52.112;5.144;2022-12-16T16:30:08;101815.20;;;0.20
66403;BMP180;53212;52.112;5.144;2022-12-16T16:32:56;101824.20;;;0.20
66403;BMP180;53212;52.112;5.144;2022-12-16T16:35:40;101827.60;;;0.20
66403;BMP180;53212;52.112;5.144;2022-12-16T16:38:24;101828.80;;;0.20
66403;BMP180;53212;52.112;5.144;2022-12-16T16:41:14;101832.00;;;0.10
66403;BMP180;53212;52.112;5.144;2022-12-16T16:43:59;101832.00;;;0.00
66403;BMP180;53212;52.112;5.144;2022-12-16T16:46:45;101838.00;;;-0.10
66403;BMP180;53212;52.112;5.144;2022-12-16T16:49:47;101834.40;;;-0.20
66403;BMP180;53212;52.112;5.144;2022-12-16T16:52:31;101838.20;;;-0.30
66403;BMP180;53212;52.112;5.144;2022-12-16T16:55:22;101835.80;;;-0.40
66403;BMP180;53212;52.112;5.144;2022-12-16T16:58:25;101836.80;;;-0.50
66403;BMP180;53212;52.112;5.144;2022-12-16T17:01:15;101839.40;;;-0.52